Paisaje, Colorado
Current Conditions -  °F | °C
As of 6:52 AM on Thursday 30 Oct 2014 (Local Time) from KALS Reporting Station
Clear Clear  
Wind Chill: 12°   Ceiling: Unl
Heat Index: 19°   Visibility: 10mi
Dew Point: 11°   Wind: 5mph
Humidity: 71%   Direction: 150°SSE
Pressure: 30.4"   Gusts: NA
Location:  37.1816°N, 106.262°W
Report Text: KALS 301252Z AUTO 15004KT 10SM CLR M07/M12 A3040 RMK AO2 SLP295 T10721117
Loading
Personal Weather Stations






























Interactive Weather Map
Tropical Storm Tracking
New forecast layout! Learn more

10-Day Weather Forecast

Advertisements
Track Severe Weather on mobile